Time;durP1;ratioP1;P1;durP2;ratioP2;P2;SDS_P1;SDS_P2;PMS_P1;PMS_P2;Temp;Humidity;BMP_temperature;BMP_pressure;BME280_temperature;BME280_humidity;BME280_pressure;Samples;Min_cycle;Max_cycle;Signal;HPM_P1;HPM_P2
2022/05/24 00:01:19;;;;;;;;;3.00;2.00;;;;;;;;5053033;28;46529;-73
2022/05/24 00:03:44;;;;;;;;;3.67;3.00;;;;;;;;5059189;28;45292;-73
2022/05/24 00:06:09;;;;;;;;;5.00;3.00;;;;;;;;5052857;28;45525;-73
2022/05/24 00:08:34;;;;;;;;;4.33;4.00;;;;;;;;5063655;28;45882;-73
2022/05/24 00:11:00;;;;;;;;;4.00;3.00;;;;;;;;5052731;28;48498;-73
2022/05/24 00:13:26;;;;;;;;;4.00;3.00;;;;;;;;5057393;28;45391;-73
2022/05/24 00:15:51;;;;;;;;;2.67;2.67;;;;;;;;5055313;28;45321;-73
2022/05/24 00:18:18;;;;;;;;;5.67;4.67;;;;;;;;5054886;28;45503;-73
2022/05/24 00:20:46;;;;;;;;;3.33;3.33;;;;;;;;5056250;28;45446;-73
2022/05/24 00:23:12;;;;;;;;;3.00;3.00;;;;;;;;5057231;28;45261;-73
2022/05/24 00:25:38;;;;;;;;;3.00;2.00;;;;;;;;5057141;28;45438;-73
2022/05/24 00:28:05;;;;;;;;;2.00;2.00;;;;;;;;5058116;28;45011;-73
2022/05/24 00:30:30;;;;;;;;;3.00;2.00;;;;;;;;5055463;28;48144;-73
2022/05/24 00:32:56;;;;;;;;;4.67;3.00;;;;;;;;5045145;28;45261;-73
2022/05/24 00:35:21;;;;;;;;;4.00;3.00;;;;;;;;5050626;28;45625;-73
2022/05/24 00:37:47;;;;;;;;;3.00;2.00;;;;;;;;5057522;28;46101;-73
2022/05/24 00:40:35;;;;;;;;;5.00;3.33;;;;;;;;5058042;28;46822;-73
2022/05/24 00:43:08;;;;;;;;;3.00;2.33;;;;;;;;5043570;28;45271;-73
2022/05/24 00:45:39;;;;;;;;;4.67;3.00;;;;;;;;5057098;28;45319;-73
2022/05/24 00:48:06;;;;;;;;;1.67;1.67;;;;;;;;5055517;28;45468;-74
2022/05/24 00:50:35;;;;;;;;;4.00;3.00;;;;;;;;5057662;28;45515;-73
2022/05/24 00:53:03;;;;;;;;;3.00;2.33;;;;;;;;5054780;28;45252;-73
2022/05/24 00:55:34;;;;;;;;;2.00;2.00;;;;;;;;5056636;28;45292;-73
2022/05/24 00:58:10;;;;;;;;;2.00;2.00;;;;;;;;5051516;28;45437;-74
2022/05/24 01:00:36;;;;;;;;;3.00;3.00;;;;;;;;5044234;28;46974;-73
2022/05/24 01:03:01;;;;;;;;;2.00;2.00;;;;;;;;5053769;28;45379;-73
2022/05/24 01:05:27;;;;;;;;;2.00;2.00;;;;;;;;5056521;28;45387;-73
2022/05/24 01:07:53;;;;;;;;;3.33;3.33;;;;;;;;5053911;28;45389;-73
2022/05/24 01:10:23;;;;;;;;;3.00;3.00;;;;;;;;5055725;28;46243;-73
2022/05/24 01:12:56;;;;;;;;;3.00;3.00;;;;;;;;5052830;28;45357;-72
2022/05/24 01:15:22;;;;;;;;;5.00;3.67;;;;;;;;5056693;28;45333;-73
2022/05/24 01:17:48;;;;;;;;;2.67;2.67;;;;;;;;5053834;28;45275;-73
2022/05/24 01:20:14;;;;;;;;;5.00;3.00;;;;;;;;5055968;28;47049;-73
2022/05/24 01:22:58;;;;;;;;;2.33;1.33;;;;;;;;5055039;28;45374;-73
2022/05/24 01:25:32;;;;;;;;;3.33;2.67;;;;;;;;5055192;28;45673;-73
2022/05/24 01:27:59;;;;;;;;;2.67;2.67;;;;;;;;5049111;28;45310;-73
2022/05/24 01:30:24;;;;;;;;;3.33;2.00;;;;;;;;5056039;28;45241;-73
2022/05/24 01:38:21;;;;;;;;;2.33;2.00;;;;;;;;5055705;28;45655;-73
2022/05/24 01:40:48;;;;;;;;;3.00;3.00;;;;;;;;5054499;28;45744;-73
2022/05/24 01:43:15;;;;;;;;;2.00;2.00;;;;;;;;5053637;28;45251;-73
2022/05/24 01:45:44;;;;;;;;;4.67;3.00;;;;;;;;5058988;28;45469;-73
2022/05/24 01:48:12;;;;;;;;;5.33;1.33;;;;;;;;5057688;28;45308;-73
2022/05/24 01:50:38;;;;;;;;;4.67;2.67;;;;;;;;5059007;28;46395;-73
2022/05/24 01:53:07;;;;;;;;;3.00;2.33;;;;;;;;5056123;28;45292;-73
2022/05/24 01:55:34;;;;;;;;;1.33;1.33;;;;;;;;5057569;28;45439;-73
2022/05/24 01:58:03;;;;;;;;;2.00;2.00;;;;;;;;5056750;28;45295;-73
2022/05/24 02:00:28;;;;;;;;;2.33;2.00;;;;;;;;5059124;28;45408;-73
2022/05/24 02:02:53;;;;;;;;;3.00;1.67;;;;;;;;5064962;28;45887;-73
2022/05/24 02:05:39;;;;;;;;;2.00;2.00;;;;;;;;5059835;28;45359;-73
2022/05/24 02:08:07;;;;;;;;;2.00;2.00;;;;;;;;5057522;28;45268;-73
2022/05/24 02:10:36;;;;;;;;;2.00;2.00;;;;;;;;5058439;28;48429;-73
2022/05/24 02:13:02;;;;;;;;;1.00;1.00;;;;;;;;5059477;28;45889;-73
2022/05/24 02:15:29;;;;;;;;;1.00;1.00;;;;;;;;5059387;28;45356;-73
2022/05/24 02:18:02;;;;;;;;;2.00;2.00;;;;;;;;5058813;28;47042;-73
2022/05/24 02:20:32;;;;;;;;;3.00;2.00;;;;;;;;5058977;28;45247;-73
2022/05/24 02:22:58;;;;;;;;;0.67;0.67;;;;;;;;5058257;28;46413;-73
2022/05/24 02:25:30;;;;;;;;;1.00;1.00;;;;;;;;5059017;28;45618;-73
2022/05/24 02:27:55;;;;;;;;;1.00;1.00;;;;;;;;5060681;28;45692;-72
2022/05/24 02:30:22;;;;;;;;;1.33;1.33;;;;;;;;5057763;28;48656;-73
2022/05/24 02:32:47;;;;;;;;;3.00;2.00;;;;;;;;5052262;28;45370;-72
2022/05/24 02:35:12;;;;;;;;;1.00;1.00;;;;;;;;5053653;28;45237;-72
2022/05/24 02:37:38;;;;;;;;;2.00;2.00;;;;;;;;5059067;28;46195;-73
2022/05/24 02:42:48;;;;;;;;;3.00;1.67;;;;;;;;5053875;28;45589;-73
2022/05/24 02:45:13;;;;;;;;;2.33;2.33;;;;;;;;5060126;28;45490;-73
2022/05/24 02:47:38;;;;;;;;;3.33;2.00;;;;;;;;5054828;28;45339;-72
2022/05/24 02:50:04;;;;;;;;;1.00;1.00;;;;;;;;5058860;28;46971;-73
2022/05/24 02:52:30;;;;;;;;;1.33;1.33;;;;;;;;5053836;28;45471;-73
2022/05/24 02:54:57;;;;;;;;;2.00;2.00;;;;;;;;5060018;28;45207;-73
2022/05/24 02:57:22;;;;;;;;;2.00;2.00;;;;;;;;5053978;28;45283;-73
2022/05/24 02:59:47;;;;;;;;;1.00;1.00;;;;;;;;5060297;28;46276;-73
2022/05/24 03:02:12;;;;;;;;;2.00;2.00;;;;;;;;5052515;28;45300;-73
2022/05/24 03:04:37;;;;;;;;;2.00;1.00;;;;;;;;5054778;28;45221;-73
2022/05/24 03:09:47;;;;;;;;;2.00;1.67;;;;;;;;5056585;28;45769;-73
2022/05/24 03:14:56;;;;;;;;;3.00;1.33;;;;;;;;5059317;28;45287;-73
2022/05/24 03:17:22;;;;;;;;;2.00;2.00;;;;;;;;5054747;28;45421;-73
2022/05/24 03:19:48;;;;;;;;;3.00;1.67;;;;;;;;5058555;28;45340;-73
2022/05/24 03:22:13;;;;;;;;;1.00;1.00;;;;;;;;5057157;28;45295;-73
2022/05/24 03:24:39;;;;;;;;;2.00;2.00;;;;;;;;5058910;28;45282;-73
2022/05/24 03:27:11;;;;;;;;;1.00;1.00;;;;;;;;5058103;28;45354;-73
2022/05/24 03:29:40;;;;;;;;;1.67;1.67;;;;;;;;5059673;28;45279;-73
2022/05/24 03:32:06;;;;;;;;;4.33;1.00;;;;;;;;5050482;28;45464;-73
2022/05/24 03:34:31;;;;;;;;;1.00;1.00;;;;;;;;5052432;28;45464;-73
2022/05/24 03:36:56;;;;;;;;;2.00;1.33;;;;;;;;5048090;28;45391;-73
2022/05/24 03:39:21;;;;;;;;;3.33;1.67;;;;;;;;5059837;28;45438;-73
2022/05/24 03:41:47;;;;;;;;;1.67;1.67;;;;;;;;5051995;28;45426;-73
2022/05/24 03:44:12;;;;;;;;;1.00;1.00;;;;;;;;5058938;28;45425;-73
2022/05/24 03:46:38;;;;;;;;;2.67;2.00;;;;;;;;5052990;28;45422;-73
2022/05/24 03:49:03;;;;;;;;;1.00;1.00;;;;;;;;5059049;28;45371;-73
2022/05/24 03:51:29;;;;;;;;;3.00;0.00;;;;;;;;5084198;27;45264;-73
2022/05/24 03:53:54;;;;;;;;;3.67;3.00;;;;;;;;5058286;28;45245;-73
2022/05/24 03:56:19;;;;;;;;;1.67;1.67;;;;;;;;5053289;28;45276;-73
2022/05/24 03:58:44;;;;;;;;;2.00;2.00;;;;;;;;5059399;28;45406;-74
2022/05/24 04:01:10;;;;;;;;;1.75;1.75;;;;;;;;5053488;28;45244;-73
2022/05/24 04:03:36;;;;;;;;;3.33;1.00;;;;;;;;5058837;28;45177;-73
2022/05/24 04:06:01;;;;;;;;;2.33;1.33;;;;;;;;5053689;28;45134;-73
2022/05/24 04:08:27;;;;;;;;;1.33;1.00;;;;;;;;5053280;28;45276;-72
2022/05/24 04:11:02;;;;;;;;;2.50;2.50;;;;;;;;5055690;28;45304;-73
2022/05/24 04:13:28;;;;;;;;;3.00;2.00;;;;;;;;5055632;28;45304;-74
2022/05/24 04:15:53;;;;;;;;;2.00;0.00;;;;;;;;5055304;28;45532;-73
2022/05/24 04:18:18;;;;;;;;;2.00;1.50;;;;;;;;5054759;28;48453;-73
2022/05/24 04:20:43;;;;;;;;;1.67;1.33;;;;;;;;5055338;28;45284;-73
2022/05/24 04:23:12;;;;;;;;;1.00;1.00;;;;;;;;5062828;28;45287;-72
2022/05/24 04:25:38;;;;;;;;;1.00;1.00;;;;;;;;5050157;28;45502;-73
2022/05/24 04:28:03;;;;;;;;;1.00;1.00;;;;;;;;5050009;28;46296;-72
2022/05/24 04:30:28;;;;;;;;;0.67;0.67;;;;;;;;5057061;28;45330;-73
2022/05/24 04:32:53;;;;;;;;;1.75;1.75;;;;;;;;5057341;28;45656;-74
2022/05/24 04:35:19;;;;;;;;;1.00;1.00;;;;;;;;5058019;28;45331;-74
2022/05/24 04:37:44;;;;;;;;;1.50;1.00;;;;;;;;5048916;28;48572;-72
2022/05/24 04:40:09;;;;;;;;;1.00;1.00;;;;;;;;5067080;28;45272;-72
2022/05/24 04:42:35;;;;;;;;;1.00;1.00;;;;;;;;5050421;28;45446;-72
2022/05/24 04:45:03;;;;;;;;;2.33;1.33;;;;;;;;5057813;28;47104;-73
2022/05/24 04:47:29;;;;;;;;;1.00;1.00;;;;;;;;5050715;28;47320;-72
2022/05/24 04:49:57;;;;;;;;;1.67;1.67;;;;;;;;5058688;28;45459;-74
2022/05/24 04:52:23;;;;;;;;;1.00;1.00;;;;;;;;5052457;28;45322;-72
2022/05/24 04:54:49;;;;;;;;;1.00;1.00;;;;;;;;5052240;28;45365;-72
2022/05/24 04:57:15;;;;;;;;;2.00;0.00;;;;;;;;5077976;27;46981;-72
2022/05/24 04:59:40;;;;;;;;;4.00;1.00;;;;;;;;5056847;28;45213;-71
2022/05/24 05:02:06;;;;;;;;;1.50;1.50;;;;;;;;5053414;28;48048;-72
2022/05/24 05:04:31;;;;;;;;;2.00;1.00;;;;;;;;5057814;28;45479;-72
2022/05/24 05:06:56;;;;;;;;;2.00;1.00;;;;;;;;5055590;28;45434;-72
2022/05/24 05:09:22;;;;;;;;;3.33;1.00;;;;;;;;5057803;28;45480;-71
2022/05/24 05:11:47;;;;;;;;;1.33;1.33;;;;;;;;5076490;27;45250;-72
2022/05/24 05:14:12;;;;;;;;;0.75;0.75;;;;;;;;5053534;28;45347;-72
2022/05/24 05:16:38;;;;;;;;;1.67;1.00;;;;;;;;5056118;28;45412;-72
2022/05/24 05:19:04;;;;;;;;;0.00;0.00;;;;;;;;5059334;28;45288;-72
2022/05/24 05:21:33;;;;;;;;;1.00;1.00;;;;;;;;5059913;28;45422;-72
2022/05/24 05:23:59;;;;;;;;;0.50;0.50;;;;;;;;5061386;28;45393;-72
2022/05/24 05:26:24;;;;;;;;;3.00;1.00;;;;;;;;5055998;28;46132;-71
2022/05/24 05:28:49;;;;;;;;;2.00;1.00;;;;;;;;5061243;28;45407;-72
2022/05/24 05:31:19;;;;;;;;;1.00;1.00;;;;;;;;5059834;28;45475;-69
2022/05/24 05:33:45;;;;;;;;;2.00;1.00;;;;;;;;5057038;28;45394;-72
2022/05/24 05:36:10;;;;;;;;;2.00;1.25;;;;;;;;5052230;28;46610;-70
2022/05/24 05:38:36;;;;;;;;;1.75;1.75;;;;;;;;5059933;28;45538;-70
2022/05/24 05:41:01;;;;;;;;;3.00;1.75;;;;;;;;5078627;27;45636;-70
2022/05/24 05:43:27;;;;;;;;;1.00;1.00;;;;;;;;5087348;27;45915;-71
2022/05/24 05:45:56;;;;;;;;;2.50;1.00;;;;;;;;5059235;28;45447;-70
2022/05/24 05:48:22;;;;;;;;;3.50;1.75;;;;;;;;5060489;28;45266;-70
2022/05/24 05:50:47;;;;;;;;;2.00;2.00;;;;;;;;5058750;28;45557;-70
2022/05/24 05:53:13;;;;;;;;;0.33;0.33;;;;;;;;5058759;28;45453;-70
2022/05/24 05:55:38;;;;;;;;;0.25;0.25;;;;;;;;5059367;28;45469;-70
2022/05/24 05:58:04;;;;;;;;;2.00;1.00;;;;;;;;5056744;28;45368;-70
2022/05/24 06:00:29;;;;;;;;;1.00;1.00;;;;;;;;5059490;28;45534;-71
2022/05/24 06:02:54;;;;;;;;;2.00;2.00;;;;;;;;5056457;28;45284;-71
2022/05/24 06:05:19;;;;;;;;;1.00;1.00;;;;;;;;5060009;28;46569;-71
2022/05/24 06:07:45;;;;;;;;;2.00;1.00;;;;;;;;5052920;28;45280;-71
2022/05/24 06:10:11;;;;;;;;;1.00;1.00;;;;;;;;5061245;28;45314;-71
2022/05/24 06:12:36;;;;;;;;;1.00;1.00;;;;;;;;5055553;28;45510;-71
2022/05/24 06:15:02;;;;;;;;;1.00;1.00;;;;;;;;5054624;28;46987;-71
2022/05/24 06:17:27;;;;;;;;;1.00;1.00;;;;;;;;5054555;28;45479;-70
2022/05/24 06:19:53;;;;;;;;;1.00;1.00;;;;;;;;5060404;28;45276;-70
2022/05/24 06:22:18;;;;;;;;;1.00;1.00;;;;;;;;5058450;28;46305;-71
2022/05/24 06:24:46;;;;;;;;;2.00;1.00;;;;;;;;5060495;28;46233;-71
2022/05/24 06:27:11;;;;;;;;;2.00;2.00;;;;;;;;5056980;28;45216;-71
2022/05/24 06:29:36;;;;;;;;;1.00;1.00;;;;;;;;5058351;28;45228;-71
2022/05/24 06:32:03;;;;;;;;;2.00;1.00;;;;;;;;5052435;28;45975;-70
2022/05/24 06:34:29;;;;;;;;;1.00;1.00;;;;;;;;5059732;28;45598;-70
2022/05/24 06:36:55;;;;;;;;;1.00;1.00;;;;;;;;5050170;28;45477;-71
2022/05/24 06:39:20;;;;;;;;;1.00;1.00;;;;;;;;5059124;28;45411;-70
2022/05/24 06:41:45;;;;;;;;;1.67;1.67;;;;;;;;5049368;28;45902;-71
2022/05/24 06:44:10;;;;;;;;;1.00;1.00;;;;;;;;5059432;28;45443;-71
2022/05/24 06:46:36;;;;;;;;;1.33;1.33;;;;;;;;5052423;28;46040;-71
2022/05/24 06:49:01;;;;;;;;;1.00;1.00;;;;;;;;5060090;28;45469;-70
2022/05/24 06:51:26;;;;;;;;;2.67;1.00;;;;;;;;5051878;28;45919;-72
2022/05/24 06:53:51;;;;;;;;;1.00;1.00;;;;;;;;5058843;28;46975;-71
2022/05/24 06:56:17;;;;;;;;;2.00;1.00;;;;;;;;5053188;28;45981;-70
2022/05/24 06:58:42;;;;;;;;;1.00;1.00;;;;;;;;5056852;28;45371;-71
2022/05/24 07:03:53;;;;;;;;;1.00;1.00;;;;;;;;5052294;28;45544;-72
2022/05/24 07:06:18;;;;;;;;;3.00;1.00;;;;;;;;5053238;28;45345;-72
2022/05/24 07:08:44;;;;;;;;;0.67;0.67;;;;;;;;5055457;28;45263;-71
2022/05/24 07:11:10;;;;;;;;;2.33;1.00;;;;;;;;5053176;28;46146;-72
2022/05/24 07:13:36;;;;;;;;;1.00;1.00;;;;;;;;5056173;28;45205;-72
2022/05/24 07:16:01;;;;;;;;;0.67;0.67;;;;;;;;5055799;28;45161;-72
2022/05/24 07:18:26;;;;;;;;;1.33;1.33;;;;;;;;5057812;28;45220;-72
2022/05/24 07:20:51;;;;;;;;;1.00;1.00;;;;;;;;5056625;28;46118;-72
2022/05/24 07:23:18;;;;;;;;;1.00;1.00;;;;;;;;5057778;28;47921;-72
2022/05/24 07:25:44;;;;;;;;;1.00;1.00;;;;;;;;5057279;28;45276;-72
2022/05/24 07:28:10;;;;;;;;;2.00;1.00;;;;;;;;5046752;28;45236;-72
2022/05/24 07:30:36;;;;;;;;;1.33;1.33;;;;;;;;5055860;28;46426;-72
2022/05/24 07:33:01;;;;;;;;;1.00;1.00;;;;;;;;5051742;28;45663;-71
2022/05/24 07:35:26;;;;;;;;;1.00;1.00;;;;;;;;5049191;28;45989;-71
2022/05/24 07:37:52;;;;;;;;;0.00;0.00;;;;;;;;5051013;28;45601;-72
2022/05/24 07:48:10;;;;;;;;;0.00;0.00;;;;;;;;5054654;28;45268;-72
2022/05/24 07:50:35;;;;;;;;;1.00;1.00;;;;;;;;5057101;28;45341;-72
2022/05/24 07:53:01;;;;;;;;;0.33;0.33;;;;;;;;5057866;28;47468;-72
2022/05/24 07:55:26;;;;;;;;;1.00;1.00;;;;;;;;5058091;28;45740;-71
2022/05/24 07:57:51;;;;;;;;;0.00;0.00;;;;;;;;5054825;28;45387;-71
2022/05/24 08:00:16;;;;;;;;;4.00;1.00;;;;;;;;5058562;28;45338;-71
2022/05/24 08:02:42;;;;;;;;;1.33;1.00;;;;;;;;5054039;28;47974;-71
2022/05/24 08:05:07;;;;;;;;;0.67;0.67;;;;;;;;5057442;28;45456;-71
2022/05/24 08:07:32;;;;;;;;;1.00;1.00;;;;;;;;5049107;28;45521;-71
2022/05/24 08:09:58;;;;;;;;;0.33;0.33;;;;;;;;5057106;28;45308;-72
2022/05/24 08:12:23;;;;;;;;;1.00;1.00;;;;;;;;5054265;28;45486;-71
2022/05/24 08:14:48;;;;;;;;;0.00;0.00;;;;;;;;5072334;28;44763;-72
2022/05/24 08:17:14;;;;;;;;;0.00;0.00;;;;;;;;5055689;28;45322;-71
2022/05/24 08:19:39;;;;;;;;;0.00;0.00;;;;;;;;5056957;28;45504;-71
2022/05/24 08:22:05;;;;;;;;;1.00;1.00;;;;;;;;5056639;28;45358;-71
2022/05/24 08:24:30;;;;;;;;;1.00;0.00;;;;;;;;5058412;28;45296;-71
2022/05/24 08:26:55;;;;;;;;;1.33;0.00;;;;;;;;5051747;28;45297;-71
2022/05/24 08:29:21;;;;;;;;;0.00;0.00;;;;;;;;5053981;28;46165;-71
2022/05/24 08:31:46;;;;;;;;;1.00;1.00;;;;;;;;5056733;28;46288;-71
2022/05/24 08:34:11;;;;;;;;;0.33;0.33;;;;;;;;5058882;28;45242;-71
2022/05/24 08:36:37;;;;;;;;;0.00;0.00;;;;;;;;5053690;28;45157;-70
2022/05/24 08:39:03;;;;;;;;;0.00;0.00;;;;;;;;5057714;28;46294;-71
2022/05/24 08:41:35;;;;;;;;;1.00;1.00;;;;;;;;5050698;28;45980;-70
2022/05/24 08:49:43;;;;;;;;;1.67;1.00;;;;;;;;5055081;28;45471;-71
2022/05/24 08:52:09;;;;;;;;;4.00;0.00;;;;;;;;5052426;28;45370;-71
2022/05/24 08:54:34;;;;;;;;;0.00;0.00;;;;;;;;5061005;28;45300;-71
2022/05/24 08:57:04;;;;;;;;;0.00;0.00;;;;;;;;5058773;28;45425;-70
2022/05/24 08:59:34;;;;;;;;;1.00;1.00;;;;;;;;5061937;28;45467;-71
2022/05/24 09:02:00;;;;;;;;;0.00;0.00;;;;;;;;5055348;28;45363;-71
2022/05/24 09:04:25;;;;;;;;;2.00;0.00;;;;;;;;5060330;28;45280;-72
2022/05/24 09:07:06;;;;;;;;;0.00;0.00;;;;;;;;5077823;27;46093;-71
2022/05/24 09:09:37;;;;;;;;;1.00;0.00;;;;;;;;5058204;28;46393;-71
2022/05/24 09:12:21;;;;;;;;;0.00;0.00;;;;;;;;5058179;28;45388;-70
2022/05/24 09:14:49;;;;;;;;;0.67;0.67;;;;;;;;5059312;28;45346;-71
2022/05/24 09:17:40;;;;;;;;;1.00;1.00;;;;;;;;5058866;28;45758;-71
2022/05/24 09:20:13;;;;;;;;;0.00;0.00;;;;;;;;5041030;28;45341;-71
2022/05/24 09:22:38;;;;;;;;;0.33;0.33;;;;;;;;5050379;28;46263;-71
2022/05/24 09:25:04;;;;;;;;;1.00;1.00;;;;;;;;5061857;28;45277;-71
2022/05/24 09:27:49;;;;;;;;;2.00;1.00;;;;;;;;5050364;28;45252;-71
2022/05/24 09:30:20;;;;;;;;;0.00;0.00;;;;;;;;5061700;28;45329;-71
2022/05/24 09:32:48;;;;;;;;;0.67;0.33;;;;;;;;5055463;28;45400;-72
2022/05/24 09:35:18;;;;;;;;;0.00;0.00;;;;;;;;5060241;28;45321;-72
2022/05/24 09:38:03;;;;;;;;;2.00;0.00;;;;;;;;5053781;28;45395;-71
2022/05/24 09:40:29;;;;;;;;;1.67;0.67;;;;;;;;5055107;28;46351;-71
2022/05/24 09:42:54;;;;;;;;;1.67;0.00;;;;;;;;5052979;28;45249;-71
2022/05/24 09:45:26;;;;;;;;;0.00;0.00;;;;;;;;5050341;28;45418;-71
2022/05/24 09:47:54;;;;;;;;;0.00;0.00;;;;;;;;5054353;28;45388;-72
2022/05/24 09:50:22;;;;;;;;;1.00;0.00;;;;;;;;5060581;28;45360;-71
2022/05/24 09:53:12;;;;;;;;;0.67;0.00;;;;;;;;5057590;28;47919;-72
2022/05/24 09:55:39;;;;;;;;;0.00;0.00;;;;;;;;5059318;28;45336;-72
2022/05/24 09:58:20;;;;;;;;;0.67;0.00;;;;;;;;5059016;28;45610;-71
2022/05/24 10:00:48;;;;;;;;;1.00;0.00;;;;;;;;5057371;28;46578;-71
2022/05/24 10:03:13;;;;;;;;;0.00;0.00;;;;;;;;5051762;28;45520;-71
2022/05/24 10:05:39;;;;;;;;;2.00;0.00;;;;;;;;5056413;28;45256;-70
2022/05/24 10:08:11;;;;;;;;;0.00;0.00;;;;;;;;5051299;28;45418;-71
2022/05/24 10:10:39;;;;;;;;;0.00;0.00;;;;;;;;5057674;28;46973;-71
2022/05/24 10:13:33;;;;;;;;;0.00;0.00;;;;;;;;5055620;28;46250;-71
2022/05/24 10:16:06;;;;;;;;;0.00;0.00;;;;;;;;5057593;28;45551;-71
2022/05/24 10:18:50;;;;;;;;;0.00;0.00;;;;;;;;5059537;28;45436;-70
2022/05/24 10:21:16;;;;;;;;;0.67;0.00;;;;;;;;5055522;28;45208;-71
2022/05/24 10:23:44;;;;;;;;;0.00;0.00;;;;;;;;5059952;28;45319;-71
2022/05/24 10:26:14;;;;;;;;;1.00;1.00;;;;;;;;5058708;28;45819;-71
2022/05/24 10:28:39;;;;;;;;;0.00;0.00;;;;;;;;5059336;28;45383;-70
2022/05/24 10:31:23;;;;;;;;;0.00;0.00;;;;;;;;5056486;28;45239;-70
2022/05/24 10:39:54;;;;;;;;;0.00;0.00;;;;;;;;5057304;28;45455;-70
2022/05/24 10:42:47;;;;;;;;;0.00;0.00;;;;;;;;5053806;28;45458;-69
2022/05/24 10:45:23;;;;;;;;;0.50;0.50;;;;;;;;5054880;28;46180;-69
2022/05/24 10:47:49;;;;;;;;;0.50;0.50;;;;;;;;5080943;27;45299;-69
2022/05/24 10:50:22;;;;;;;;;0.00;0.00;;;;;;;;5059080;28;45229;-68
2022/05/24 10:52:52;;;;;;;;;1.50;0.00;;;;;;;;5080495;27;45804;-68
2022/05/24 10:55:19;;;;;;;;;1.25;1.00;;;;;;;;5059894;28;46669;-69
2022/05/24 10:58:01;;;;;;;;;0.00;0.00;;;;;;;;5054882;28;45395;-69
2022/05/24 11:00:40;;;;;;;;;0.50;0.50;;;;;;;;5058590;28;45399;-69
2022/05/24 11:03:08;;;;;;;;;0.00;0.00;;;;;;;;5056400;28;45336;-70
2022/05/24 11:05:54;;;;;;;;;2.67;1.00;;;;;;;;5045965;28;45410;-70
2022/05/24 11:08:51;;;;;;;;;1.33;0.33;;;;;;;;5052299;28;45351;-70
2022/05/24 11:11:49;;;;;;;;;0.00;0.00;;;;;;;;5031933;28;45533;-69
2022/05/24 11:14:14;;;;;;;;;2.00;0.00;;;;;;;;5030325;28;45523;-68
2022/05/24 11:16:44;;;;;;;;;0.00;0.00;;;;;;;;5055977;28;45252;-69
2022/05/24 11:19:13;;;;;;;;;0.00;0.00;;;;;;;;5058647;28;45308;-68
2022/05/24 11:21:41;;;;;;;;;0.00;0.00;;;;;;;;5053048;28;45327;-68
2022/05/24 11:24:11;;;;;;;;;1.00;1.00;;;;;;;;5053175;28;45459;-68
2022/05/24 11:26:39;;;;;;;;;0.00;0.00;;;;;;;;5055320;28;46223;-68
2022/05/24 11:29:16;;;;;;;;;2.00;2.00;;;;;;;;5050658;28;45678;-68
2022/05/24 11:31:44;;;;;;;;;0.00;0.00;;;;;;;;5051922;28;45482;-68
2022/05/24 11:34:18;;;;;;;;;0.67;0.00;;;;;;;;5059331;28;45517;-68
2022/05/24 11:37:13;;;;;;;;;2.50;0.00;;;;;;;;5054137;28;45329;-68
2022/05/24 11:39:40;;;;;;;;;0.25;0.00;;;;;;;;5041910;28;45635;-68
2022/05/24 11:42:25;;;;;;;;;0.00;0.00;;;;;;;;5049859;28;45330;-68
2022/05/24 11:44:52;;;;;;;;;0.00;0.00;;;;;;;;5050589;28;45316;-68
2022/05/24 11:47:35;;;;;;;;;0.25;0.25;;;;;;;;5052748;28;46405;-68
2022/05/24 11:50:00;;;;;;;;;0.00;0.00;;;;;;;;5051709;28;45391;-68
2022/05/24 11:52:45;;;;;;;;;0.00;0.00;;;;;;;;5053681;28;45379;-68
2022/05/24 11:55:31;;;;;;;;;0.00;0.00;;;;;;;;5055669;28;45412;-69
2022/05/24 11:58:03;;;;;;;;;0.75;0.75;;;;;;;;5054145;28;46051;-71
2022/05/24 12:00:30;;;;;;;;;0.50;0.50;;;;;;;;5056284;28;46411;-70
2022/05/24 12:08:33;;;;;;;;;0.00;0.00;;;;;;;;5054261;28;45885;-71
2022/05/24 12:11:04;;;;;;;;;2.00;0.00;;;;;;;;5051914;28;45500;-69
2022/05/24 12:13:45;;;;;;;;;3.25;0.25;;;;;;;;5052598;28;45639;-68
2022/05/24 12:16:29;;;;;;;;;2.00;0.00;;;;;;;;5052815;28;47737;-68
2022/05/24 12:18:59;;;;;;;;;0.00;0.00;;;;;;;;5058103;28;46267;-68
2022/05/24 12:21:38;;;;;;;;;0.25;0.25;;;;;;;;5056832;28;45438;-68
2022/05/24 12:24:24;;;;;;;;;0.00;0.00;;;;;;;;5052677;28;45347;-68
2022/05/24 12:27:08;;;;;;;;;3.00;0.00;;;;;;;;5053301;28;45485;-69
2022/05/24 12:29:33;;;;;;;;;0.50;0.50;;;;;;;;5056134;28;45422;-69
2022/05/24 12:32:04;;;;;;;;;0.00;0.00;;;;;;;;5052245;28;45363;-68
2022/05/24 12:34:30;;;;;;;;;0.00;0.00;;;;;;;;5058733;28;45394;-69
2022/05/24 12:36:56;;;;;;;;;0.25;0.25;;;;;;;;5053313;28;45228;-68
2022/05/24 12:39:22;;;;;;;;;0.00;0.00;;;;;;;;5058177;28;46350;-70
2022/05/24 12:41:47;;;;;;;;;1.00;0.00;;;;;;;;5056902;28;45346;-69
2022/05/24 12:44:26;;;;;;;;;0.00;0.00;;;;;;;;5058096;28;45292;-70
2022/05/24 12:46:59;;;;;;;;;1.25;0.00;;;;;;;;5049943;28;45905;-70
2022/05/24 12:49:25;;;;;;;;;0.75;0.00;;;;;;;;5057244;28;46379;-70
2022/05/24 12:52:03;;;;;;;;;0.00;0.00;;;;;;;;5052556;28;45567;-70
2022/05/24 12:54:30;;;;;;;;;0.00;0.00;;;;;;;;5058742;28;45434;-70
2022/05/24 12:57:01;;;;;;;;;0.00;0.00;;;;;;;;5051835;28;46350;-69
2022/05/24 12:59:34;;;;;;;;;0.00;0.00;;;;;;;;5058236;28;45370;-69
2022/05/24 13:02:03;;;;;;;;;0.25;0.00;;;;;;;;5051836;28;45412;-70
2022/05/24 13:04:29;;;;;;;;;2.00;0.00;;;;;;;;5053538;28;45358;-69
2022/05/24 13:07:08;;;;;;;;;0.00;0.00;;;;;;;;5053150;28;46118;-69
2022/05/24 13:09:41;;;;;;;;;0.00;0.00;;;;;;;;5054702;28;45520;-70
2022/05/24 13:12:08;;;;;;;;;0.00;0.00;;;;;;;;5049719;28;45439;-69
2022/05/24 13:14:46;;;;;;;;;0.00;0.00;;;;;;;;5052807;28;45955;-69
2022/05/24 13:17:13;;;;;;;;;0.25;0.25;;;;;;;;5055254;28;45387;-70
2022/05/24 13:19:55;;;;;;;;;0.00;0.00;;;;;;;;5056400;28;47210;-69
2022/05/24 13:22:22;;;;;;;;;1.60;0.20;;;;;;;;5047915;28;45378;-70
2022/05/24 13:24:56;;;;;;;;;0.00;0.00;;;;;;;;5057777;28;45248;-69
2022/05/24 13:27:21;;;;;;;;;0.00;0.00;;;;;;;;5055805;28;45549;-70
2022/05/24 13:35:29;;;;;;;;;0.00;0.00;;;;;;;;5057577;28;45399;-69
2022/05/24 13:37:57;;;;;;;;;0.00;0.00;;;;;;;;5044792;28;46389;-71
2022/05/24 13:40:36;;;;;;;;;0.00;0.00;;;;;;;;5053842;28;47401;-69
2022/05/24 13:43:01;;;;;;;;;0.75;0.00;;;;;;;;5055096;28;45321;-70
2022/05/24 13:45:27;;;;;;;;;0.00;0.00;;;;;;;;5060380;28;45323;-69
2022/05/24 13:47:54;;;;;;;;;2.00;0.00;;;;;;;;5054994;28;45561;-69
2022/05/24 13:50:41;;;;;;;;;0.00;0.00;;;;;;;;5061099;28;45502;-69
2022/05/24 13:53:06;;;;;;;;;0.80;0.00;;;;;;;;5055772;28;45413;-69
2022/05/24 13:55:39;;;;;;;;;0.00;0.00;;;;;;;;5059143;28;45259;-70
2022/05/24 13:58:27;;;;;;;;;0.00;0.00;;;;;;;;5056112;28;46031;-70
2022/05/24 14:01:00;;;;;;;;;0.00;0.00;;;;;;;;5057791;28;47185;-70
2022/05/24 14:03:26;;;;;;;;;0.00;0.00;;;;;;;;5052475;28;45771;-70
2022/05/24 14:06:04;;;;;;;;;0.00;0.00;;;;;;;;5057957;28;45498;-70
2022/05/24 14:08:30;;;;;;;;;0.00;0.00;;;;;;;;5055445;28;46814;-70
2022/05/24 14:10:56;;;;;;;;;0.00;0.00;;;;;;;;5057273;28;47461;-70
2022/05/24 14:13:22;;;;;;;;;0.75;0.00;;;;;;;;5056164;28;45536;-70
2022/05/24 14:15:48;;;;;;;;;0.00;0.00;;;;;;;;5060355;28;45291;-70
2022/05/24 14:18:14;;;;;;;;;0.00;0.00;;;;;;;;5058862;28;46090;-69
2022/05/24 14:20:40;;;;;;;;;0.00;0.00;;;;;;;;5057365;28;47907;-68
2022/05/24 14:23:05;;;;;;;;;0.50;0.00;;;;;;;;5060606;28;45299;-69
2022/05/24 14:25:31;;;;;;;;;0.00;0.00;;;;;;;;5058309;28;45260;-70
2022/05/24 14:27:56;;;;;;;;;0.00;0.00;;;;;;;;5046926;28;46054;-71
2022/05/24 14:30:22;;;;;;;;;0.00;0.00;;;;;;;;5050740;28;47198;-70
2022/05/24 14:32:47;;;;;;;;;0.00;0.00;;;;;;;;5054535;28;45456;-70
2022/05/24 14:35:13;;;;;;;;;0.00;0.00;;;;;;;;5061395;28;45431;-70
2022/05/24 14:37:38;;;;;;;;;0.25;0.00;;;;;;;;5053858;28;45572;-69
2022/05/24 14:40:04;;;;;;;;;0.25;0.25;;;;;;;;5059102;28;47324;-71
2022/05/24 14:42:31;;;;;;;;;0.00;0.00;;;;;;;;5051678;28;45348;-70
2022/05/24 14:44:56;;;;;;;;;0.00;0.00;;;;;;;;5061168;28;45343;-71
2022/05/24 14:47:21;;;;;;;;;0.00;0.00;;;;;;;;5056338;28;46219;-70
2022/05/24 14:49:47;;;;;;;;;0.00;0.00;;;;;;;;5059281;28;47260;-70
2022/05/24 14:52:13;;;;;;;;;0.00;0.00;;;;;;;;5078093;27;47983;-70
2022/05/24 14:54:44;;;;;;;;;0.00;0.00;;;;;;;;5057113;28;45323;-70
2022/05/24 14:57:09;;;;;;;;;0.00;0.00;;;;;;;;5053743;28;45420;-70
2022/05/24 14:59:37;;;;;;;;;0.00;0.00;;;;;;;;5056927;28;45373;-70
2022/05/24 15:02:02;;;;;;;;;0.00;0.00;;;;;;;;5053515;28;45393;-70
2022/05/24 15:04:28;;;;;;;;;0.00;0.00;;;;;;;;5059972;28;45233;-70
2022/05/24 15:06:53;;;;;;;;;0.00;0.00;;;;;;;;5055545;28;45616;-70
2022/05/24 15:17:33;;;;;;;;;0.00;0.00;;;;;;;;5057257;28;45311;-69
2022/05/24 15:20:07;;;;;;;;;0.00;0.00;;;;;;;;5046734;28;45409;-70
2022/05/24 15:22:34;;;;;;;;;1.75;0.00;;;;;;;;5049296;28;45383;-71
2022/05/24 15:25:00;;;;;;;;;0.00;0.00;;;;;;;;5053753;28;45218;-69
2022/05/24 15:27:25;;;;;;;;;0.75;0.75;;;;;;;;5050072;28;45546;-69
2022/05/24 15:29:50;;;;;;;;;1.00;0.00;;;;;;;;5059282;28;45260;-69
2022/05/24 15:32:16;;;;;;;;;0.00;0.00;;;;;;;;5053585;28;45434;-69
2022/05/24 15:34:41;;;;;;;;;1.00;0.00;;;;;;;;5057727;28;45286;-68
2022/05/24 15:37:08;;;;;;;;;0.00;0.00;;;;;;;;5056863;28;45585;-69
2022/05/24 15:39:33;;;;;;;;;0.00;0.00;;;;;;;;5055199;28;45489;-69
2022/05/24 15:41:58;;;;;;;;;1.00;0.00;;;;;;;;5056787;28;45371;-68
2022/05/24 15:44:23;;;;;;;;;0.00;0.00;;;;;;;;5059343;28;45391;-69
2022/05/24 15:46:52;;;;;;;;;0.00;0.00;;;;;;;;5056662;28;45410;-69